Time;durP1;ratioP1;P1;durP2;ratioP2;P2;SDS_P1;SDS_P2;PMS_P1;PMS_P2;Temp;Humidity;BMP_temperature;BMP_pressure;BME280_temperature;BME280_humidity;BME280_pressure;Samples;Min_cycle;Max_cycle;Signal;HPM_P1;HPM_P2
2022/09/13 00:00:51;;;;;;;29.20;19.77;;;17.40;99.90;;;;;;4974900;28;20038;-70
2022/09/13 00:03:19;;;;;;;28.27;19.90;;;17.40;99.90;;;;;;5008754;28;20041;-70
2022/09/13 00:05:45;;;;;;;32.30;19.92;;;17.40;99.90;;;;;;5008707;28;20033;-71
2022/09/13 00:08:11;;;;;;;33.47;22.75;;;17.30;99.90;;;;;;5026768;28;20046;-71
2022/09/13 00:10:39;;;;;;;33.15;21.65;;;17.30;99.90;;;;;;4995196;28;20061;-71
2022/09/13 00:13:07;;;;;;;31.42;20.90;;;17.30;99.90;;;;;;5011771;28;20053;-70
2022/09/13 00:15:33;;;;;;;31.85;21.15;;;17.30;99.90;;;;;;4995231;28;20042;-70
2022/09/13 00:17:59;;;;;;;29.48;19.88;;;17.20;99.90;;;;;;4994851;28;20046;-70
2022/09/13 00:20:25;;;;;;;37.05;21.83;;;17.20;99.90;;;;;;5009673;28;20045;-70
2022/09/13 00:22:51;;;;;;;37.35;22.23;;;17.20;99.90;;;;;;4995282;28;20064;-71
2022/09/13 00:25:18;;;;;;;32.15;19.58;;;17.30;99.90;;;;;;4995616;28;20509;-70
2022/09/13 00:27:44;;;;;;;34.75;21.85;;;17.20;99.90;;;;;;4995515;28;20124;-70
2022/09/13 00:30:11;;;;;;;38.20;23.70;;;17.20;99.90;;;;;;5010780;28;20050;-70
2022/09/13 00:32:37;;;;;;;36.72;21.70;;;17.20;99.90;;;;;;4998118;28;20034;-71
2022/09/13 00:35:05;;;;;;;35.05;21.40;;;17.20;99.90;;;;;;5026186;28;20104;-70
2022/09/13 00:37:33;;;;;;;34.58;22.30;;;17.20;99.90;;;;;;5010923;28;20042;-70
2022/09/13 00:39:59;;;;;;;35.03;22.55;;;17.20;99.90;;;;;;4992506;28;20180;-70
2022/09/13 00:42:27;;;;;;;35.47;22.17;;;17.20;99.90;;;;;;4989915;28;20343;-70
2022/09/13 00:44:59;;;;;;;33.47;21.63;;;17.20;99.90;;;;;;5004900;28;20115;-70
2022/09/13 00:47:43;;;;;;;36.72;21.85;;;17.20;99.90;;;;;;5010183;28;20034;-70
2022/09/13 00:50:30;;;;;;;37.45;22.70;;;17.20;99.90;;;;;;5010156;28;20390;-70
2022/09/13 00:53:13;;;;;;;31.58;20.73;;;17.20;99.90;;;;;;5005327;28;20430;-70
2022/09/13 00:55:47;;;;;;;34.80;21.02;;;17.20;99.90;;;;;;5011657;28;20069;-70
2022/09/13 00:58:21;;;;;;;34.92;22.05;;;17.20;99.90;;;;;;5028740;28;20390;-70
2022/09/13 01:00:48;;;;;;;35.85;21.95;;;17.20;99.90;;;;;;5014318;28;20045;-70
2022/09/13 01:03:17;;;;;;;37.75;22.67;;;17.10;99.90;;;;;;4995565;28;20461;-69
2022/09/13 01:05:50;;;;;;;36.38;23.48;;;17.10;99.90;;;;;;5012376;28;20054;-70
2022/09/13 01:08:21;;;;;;;35.80;22.35;;;17.10;99.90;;;;;;4979101;28;20053;-69
2022/09/13 01:10:52;;;;;;;33.58;22.50;;;17.10;99.90;;;;;;5005602;28;20129;-70
2022/09/13 01:13:23;;;;;;;37.42;23.10;;;17.00;99.90;;;;;;5031015;28;20137;-69
2022/09/13 01:15:50;;;;;;;37.63;22.45;;;17.10;99.90;;;;;;5015054;28;20258;-70
2022/09/13 01:18:17;;;;;;;30.25;19.85;;;17.10;99.90;;;;;;5014752;28;20100;-69
2022/09/13 01:21:01;;;;;;;32.17;21.08;;;17.10;99.90;;;;;;5012314;28;20100;-70
2022/09/13 01:24:04;;;;;;;32.13;21.25;;;17.10;99.90;;;;;;5011477;28;20081;-70
2022/09/13 01:26:39;;;;;;;31.15;19.75;;;17.10;99.90;;;;;;5003812;28;20038;-69
2022/09/13 01:29:23;;;;;;;33.53;21.33;;;17.10;99.90;;;;;;5013597;28;20041;-69
2022/09/13 01:32:01;;;;;;;31.48;19.80;;;17.20;99.90;;;;;;5014100;28;20125;-70
2022/09/13 01:34:32;;;;;;;29.77;17.55;;;17.10;99.90;;;;;;5014594;28;20095;-69
2022/09/13 01:37:26;;;;;;;25.38;16.23;;;17.20;99.90;;;;;;5014756;28;20552;-69
2022/09/13 01:40:10;;;;;;;29.15;18.65;;;17.20;99.90;;;;;;5011199;28;20386;-70
2022/09/13 01:42:46;;;;;;;23.48;16.30;;;17.20;99.90;;;;;;5010902;28;20491;-70
2022/09/13 01:45:37;;;;;;;25.40;16.25;;;17.20;99.90;;;;;;5011433;28;20037;-71
2022/09/13 01:48:11;;;;;;;27.42;17.27;;;17.20;99.90;;;;;;5009420;28;20029;-70
2022/09/13 01:50:52;;;;;;;28.42;16.13;;;17.20;99.90;;;;;;4993464;28;20045;-71
2022/09/13 01:53:55;;;;;;;27.23;16.98;;;17.20;99.90;;;;;;4992633;28;20037;-70
2022/09/13 01:56:32;;;;;;;23.65;15.38;;;17.30;99.90;;;;;;5004928;28;20042;-70
2022/09/13 01:59:11;;;;;;;22.90;14.75;;;17.30;99.90;;;;;;5028437;28;20128;-71
2022/09/13 02:01:43;;;;;;;22.88;14.38;;;17.30;99.90;;;;;;5013557;28;20356;-71
2022/09/13 02:04:20;;;;;;;19.65;13.10;;;17.30;99.90;;;;;;5014396;28;20103;-70
2022/09/13 02:06:57;;;;;;;20.38;12.93;;;17.30;99.90;;;;;;5013836;28;20430;-70
2022/09/13 02:09:26;;;;;;;18.23;13.07;;;17.30;99.90;;;;;;5013702;28;20045;-70
2022/09/13 02:11:59;;;;;;;17.45;11.60;;;17.40;99.90;;;;;;4993249;28;20050;-71
2022/09/13 02:14:36;;;;;;;16.98;11.23;;;17.40;99.90;;;;;;5009452;28;20053;-71
2022/09/13 02:17:15;;;;;;;15.55;8.98;;;17.40;99.90;;;;;;5010821;28;20058;-70
2022/09/13 02:19:59;;;;;;;15.32;10.68;;;17.40;99.90;;;;;;4995629;28;20049;-71
2022/09/13 02:22:32;;;;;;;15.75;11.05;;;17.40;99.90;;;;;;4993558;28;20047;-71
2022/09/13 02:25:08;;;;;;;14.48;9.88;;;17.50;99.90;;;;;;4994434;28;20383;-71
2022/09/13 02:27:37;;;;;;;15.07;10.40;;;17.50;99.90;;;;;;4994264;28;20050;-71
2022/09/13 02:30:09;;;;;;;15.88;11.00;;;17.50;99.90;;;;;;5010033;28;20409;-71
2022/09/13 02:32:43;;;;;;;18.95;11.35;;;17.50;99.90;;;;;;4996193;28;20139;-71
2022/09/13 02:35:24;;;;;;;15.57;11.32;;;17.40;99.90;;;;;;5013207;28;20486;-70
2022/09/13 02:38:15;;;;;;;18.63;12.95;;;17.50;99.90;;;;;;5013434;28;20101;-71
2022/09/13 02:40:48;;;;;;;21.83;13.95;;;17.50;99.90;;;;;;5012734;28;20427;-70
2022/09/13 02:43:24;;;;;;;19.25;13.52;;;17.40;99.90;;;;;;5012043;28;20124;-71
2022/09/13 02:46:04;;;;;;;24.55;14.25;;;17.40;99.90;;;;;;5013128;28;20053;-71
2022/09/13 02:48:49;;;;;;;20.75;14.02;;;17.40;99.90;;;;;;5013248;28;20048;-70
2022/09/13 02:51:34;;;;;;;21.00;13.98;;;17.40;99.90;;;;;;5012313;28;20053;-71
2022/09/13 02:54:03;;;;;;;22.02;14.98;;;17.30;99.90;;;;;;5007905;28;20073;-71
2022/09/13 02:56:42;;;;;;;20.50;13.73;;;17.30;99.90;;;;;;5008865;28;20560;-71
2022/09/13 02:59:14;;;;;;;23.10;14.48;;;17.30;99.90;;;;;;5009683;28;20048;-71
2022/09/13 03:01:44;;;;;;;23.00;14.90;;;17.30;99.90;;;;;;5011732;28;20129;-71
2022/09/13 03:04:10;;;;;;;23.65;14.32;;;17.30;99.90;;;;;;4996847;28;20042;-71
2022/09/13 03:06:38;;;;;;;20.50;14.30;;;17.30;99.90;;;;;;4993518;28;20038;-71
2022/09/13 03:09:05;;;;;;;23.40;14.75;;;17.30;99.90;;;;;;4977336;28;20049;-70
2022/09/13 03:11:46;;;;;;;26.33;15.93;;;17.30;99.90;;;;;;5027978;28;20064;-71
2022/09/13 03:14:42;;;;;;;22.67;15.93;;;17.30;99.90;;;;;;5010664;28;20050;-71
2022/09/13 03:17:21;;;;;;;25.30;16.58;;;17.30;99.90;;;;;;4995449;28;20045;-71
2022/09/13 03:19:55;;;;;;;26.25;16.90;;;17.40;99.90;;;;;;5012097;28;20045;-71
2022/09/13 03:22:46;;;;;;;28.27;16.73;;;17.40;99.90;;;;;;5011497;28;20038;-71
2022/09/13 03:25:37;;;;;;;27.58;17.67;;;17.40;99.90;;;;;;5012899;28;20042;-70
2022/09/13 03:28:33;;;;;;;32.60;17.90;;;17.30;99.90;;;;;;5012429;28;20042;-71
2022/09/13 03:31:11;;;;;;;30.65;18.48;;;17.30;99.90;;;;;;5012744;28;20042;-71
2022/09/13 03:33:54;;;;;;;31.65;17.73;;;17.30;99.90;;;;;;4992203;28;20128;-71
2022/09/13 03:36:34;;;;;;;28.45;16.95;;;17.30;99.90;;;;;;4993063;28;20044;-70
2022/09/13 03:39:27;;;;;;;31.10;17.70;;;17.30;99.90;;;;;;4995844;28;20049;-70
2022/09/13 03:41:59;;;;;;;31.90;18.27;;;17.30;99.90;;;;;;4992837;28;20176;-70
2022/09/13 03:44:27;;;;;;;34.22;18.33;;;17.20;99.90;;;;;;4995744;28;20470;-69
2022/09/13 03:46:57;;;;;;;36.50;21.02;;;17.30;99.90;;;;;;4995532;28;20512;-69
2022/09/13 03:49:25;;;;;;;32.67;18.73;;;17.20;99.90;;;;;;4976845;28;20050;-68
2022/09/13 03:51:52;;;;;;;41.70;20.63;;;17.30;99.90;;;;;;5003312;28;20398;-69
2022/09/13 03:54:31;;;;;;;29.23;16.13;;;17.20;99.90;;;;;;4978476;28;20046;-68
2022/09/13 03:57:14;;;;;;;22.45;13.15;;;17.30;99.90;;;;;;4992493;28;20100;-68
2022/09/13 03:59:46;;;;;;;21.55;11.82;;;17.30;99.90;;;;;;4986916;28;20484;-69
2022/09/13 04:02:13;;;;;;;17.00;10.10;;;17.20;99.90;;;;;;4991116;28;20044;-69
2022/09/13 04:04:41;;;;;;;20.30;10.52;;;17.20;99.90;;;;;;5011459;28;20478;-69
2022/09/13 04:07:08;;;;;;;16.42;10.60;;;17.20;99.90;;;;;;4995718;28;20041;-69
2022/09/13 04:09:34;;;;;;;14.93;9.38;;;17.20;99.90;;;;;;5012140;28;20065;-70
2022/09/13 04:12:00;;;;;;;11.95;7.40;;;17.20;99.90;;;;;;4978476;28;20490;-69
2022/09/13 04:14:27;;;;;;;9.10;6.32;;;17.20;99.90;;;;;;5026769;28;20049;-70
2022/09/13 04:16:54;;;;;;;11.63;6.60;;;17.10;99.90;;;;;;5010505;28;20486;-69
2022/09/13 04:19:20;;;;;;;9.70;5.93;;;17.10;99.90;;;;;;5012050;28;20041;-70
2022/09/13 04:21:51;;;;;;;10.30;5.90;;;17.10;99.90;;;;;;5012041;28;20042;-70
2022/09/13 04:24:17;;;;;;;7.93;4.43;;;17.00;99.90;;;;;;4992199;28;20131;-70
2022/09/13 04:26:48;;;;;;;7.00;4.18;;;17.00;99.90;;;;;;5011599;28;20371;-70
2022/09/13 04:29:14;;;;;;;6.22;4.68;;;17.00;99.90;;;;;;4995620;28;20049;-69
2022/09/13 04:31:39;;;;;;;5.30;3.70;;;17.00;99.90;;;;;;4993681;28;20445;-70
2022/09/13 04:34:05;;;;;;;5.32;3.25;;;17.00;99.90;;;;;;5010300;28;20378;-70
2022/09/13 04:36:32;;;;;;;7.30;3.58;;;17.00;99.90;;;;;;4979005;28;20049;-70
2022/09/13 04:38:59;;;;;;;5.82;3.45;;;17.00;99.90;;;;;;4995143;28;20049;-70
2022/09/13 04:41:25;;;;;;;8.88;3.83;;;17.00;99.90;;;;;;4991403;28;20054;-70
2022/09/13 04:43:51;;;;;;;4.78;3.55;;;17.00;99.90;;;;;;5010471;28;20046;-71
2022/09/13 04:46:17;;;;;;;6.43;3.83;;;17.00;99.90;;;;;;5011760;28;20053;-70
2022/09/13 04:48:48;;;;;;;6.57;3.83;;;17.00;99.90;;;;;;5008199;28;20050;-70
2022/09/13 04:51:14;;;;;;;6.70;3.67;;;16.90;99.90;;;;;;5011152;28;20552;-69
2022/09/13 04:53:39;;;;;;;6.45;3.63;;;16.90;99.90;;;;;;5010051;28;20077;-69
2022/09/13 04:56:06;;;;;;;7.07;4.10;;;16.90;99.90;;;;;;4993272;28;20081;-69
2022/09/13 04:58:32;;;;;;;6.35;3.65;;;16.90;99.90;;;;;;4994452;28;20042;-69
2022/09/13 05:01:05;;;;;;;7.25;4.10;;;17.00;99.90;;;;;;5009409;28;20477;-70
2022/09/13 05:03:32;;;;;;;7.18;3.97;;;16.90;99.90;;;;;;5020764;28;20048;-69
2022/09/13 05:06:07;;;;;;;5.05;3.83;;;17.00;99.90;;;;;;5004475;28;20053;-70
2022/09/13 05:08:34;;;;;;;8.13;4.45;;;17.00;99.90;;;;;;5007537;28;20132;-70
2022/09/13 05:11:01;;;;;;;9.45;5.07;;;16.90;99.90;;;;;;5010352;28;20054;-70
2022/09/13 05:13:27;;;;;;;9.65;5.95;;;17.00;99.90;;;;;;5010544;28;20093;-70
2022/09/13 05:16:00;;;;;;;11.70;6.90;;;17.00;99.90;;;;;;5009812;28;20052;-70
2022/09/13 05:18:28;;;;;;;13.30;6.85;;;17.00;99.90;;;;;;5011777;28;20037;-70
2022/09/13 05:20:54;;;;;;;13.75;6.97;;;17.00;99.90;;;;;;5010923;28;20073;-70
2022/09/13 05:23:21;;;;;;;10.02;7.07;;;17.00;99.90;;;;;;5010150;28;20103;-70
2022/09/13 05:26:04;;;;;;;12.38;6.88;;;17.00;99.90;;;;;;5018829;28;20041;-70
2022/09/13 05:28:32;;;;;;;11.48;6.68;;;17.00;99.90;;;;;;5011498;28;20144;-70
2022/09/13 05:30:59;;;;;;;12.90;6.65;;;17.00;99.90;;;;;;4995013;28;20038;-70
2022/09/13 05:33:27;;;;;;;8.98;5.75;;;17.10;99.90;;;;;;5011117;28;20135;-69
2022/09/13 05:35:53;;;;;;;11.43;6.28;;;17.10;99.90;;;;;;4994342;28;20054;-70
2022/09/13 05:38:20;;;;;;;9.50;6.25;;;17.10;99.90;;;;;;5010437;28;20037;-70
2022/09/13 05:40:46;;;;;;;10.18;6.20;;;17.10;99.90;;;;;;4993221;28;20033;-70
2022/09/13 05:43:13;;;;;;;10.02;6.18;;;17.20;99.90;;;;;;5010908;28;20390;-70
2022/09/13 05:45:39;;;;;;;8.75;5.97;;;17.20;99.90;;;;;;5015052;28;20100;-70
2022/09/13 05:48:05;;;;;;;10.80;5.10;;;17.20;99.90;;;;;;5014824;28;20038;-71
2022/09/13 05:50:35;;;;;;;9.88;4.55;;;17.20;99.90;;;;;;5014841;28;20065;-71
2022/09/13 05:53:01;;;;;;;7.65;4.72;;;17.20;99.90;;;;;;4996790;28;20053;-70
2022/09/13 05:55:27;;;;;;;7.03;4.32;;;17.30;99.90;;;;;;5011084;28;20042;-70
2022/09/13 05:57:53;;;;;;;9.18;4.30;;;17.30;99.90;;;;;;4990968;28;20060;-70
2022/09/13 06:00:19;;;;;;;6.97;3.40;;;17.30;99.90;;;;;;5014556;28;20045;-70
2022/09/13 06:02:45;;;;;;;6.95;3.50;;;17.30;99.90;;;;;;4995993;28;20133;-70
2022/09/13 06:05:11;;;;;;;4.80;3.25;;;17.30;99.90;;;;;;4998001;28;20129;-70
2022/09/13 06:07:41;;;;;;;5.25;3.17;;;17.30;99.90;;;;;;5011134;28;20041;-70
2022/09/13 06:10:08;;;;;;;5.90;3.10;;;17.30;99.90;;;;;;4979563;28;20038;-70
2022/09/13 06:12:34;;;;;;;6.78;2.80;;;17.30;99.90;;;;;;5012257;28;20132;-71
2022/09/13 06:15:00;;;;;;;5.88;2.72;;;17.30;99.90;;;;;;5013748;28;20136;-71
2022/09/13 06:17:26;;;;;;;8.30;2.97;;;17.30;99.90;;;;;;4997848;28;20049;-71
2022/09/13 06:19:51;;;;;;;6.47;3.00;;;17.30;99.90;;;;;;5013084;28;20552;-72
2022/09/13 06:22:17;;;;;;;4.95;2.53;;;17.30;99.90;;;;;;4996998;28;20479;-71
2022/09/13 06:24:43;;;;;;;11.80;2.50;;;17.30;99.90;;;;;;4979380;28;20676;-71
2022/09/13 06:27:09;;;;;;;5.97;2.50;;;17.30;99.90;;;;;;4989817;28;20491;-71
2022/09/13 06:29:36;;;;;;;9.10;2.58;;;17.40;99.90;;;;;;4991398;28;20485;-71
2022/09/13 06:32:05;;;;;;;7.40;2.28;;;17.40;99.90;;;;;;5000428;28;20050;-73
2022/09/13 06:34:31;;;;;;;7.45;2.13;;;17.40;99.90;;;;;;4996893;28;20382;-71
2022/09/13 06:36:57;;;;;;;7.32;2.10;;;17.50;99.90;;;;;;4997591;28;20060;-71
2022/09/13 06:39:23;;;;;;;7.78;2.13;;;17.60;99.90;;;;;;5023635;28;20757;-71
2022/09/13 06:41:49;;;;;;;8.70;2.20;;;17.60;99.90;;;;;;4999805;28;20356;-71
2022/09/13 06:44:15;;;;;;;6.90;2.17;;;17.60;99.90;;;;;;4981432;28;20390;-72
2022/09/13 06:46:41;;;;;;;8.13;2.00;;;17.60;99.90;;;;;;4996311;28;20371;-71
2022/09/13 06:49:08;;;;;;;7.60;1.98;;;17.70;99.90;;;;;;4962012;28;20085;-71
2022/09/13 06:51:35;;;;;;;12.68;2.63;;;17.60;99.90;;;;;;4988045;28;20104;-71
2022/09/13 06:54:02;;;;;;;6.40;1.88;;;17.70;99.90;;;;;;5029206;28;20390;-72
2022/09/13 06:56:34;;;;;;;6.25;2.08;;;17.70;99.90;;;;;;5012504;28;20048;-71
2022/09/13 06:59:01;;;;;;;;;;;17.80;99.90;;;;;;5012273;28;20117;-73
2022/09/13 07:01:30;;;;;;;6.40;2.00;;;17.80;99.90;;;;;;5008637;28;19924;-72
2022/09/13 07:04:02;;;;;;;9.60;1.90;;;17.90;99.90;;;;;;4997018;28;20045;-72
2022/09/13 07:06:54;;;;;;;6.05;1.80;;;18.00;99.90;;;;;;5013475;28;20088;-71
2022/09/13 07:09:21;;;;;;;6.95;1.80;;;18.10;99.90;;;;;;5008997;28;20449;-73
2022/09/13 07:11:49;;;;;;;5.97;1.83;;;18.00;99.90;;;;;;5024463;28;20152;-72
2022/09/13 07:14:17;;;;;;;8.85;2.00;;;18.10;99.90;;;;;;5007179;28;20070;-72
2022/09/13 07:16:45;;;;;;;7.55;1.70;;;18.10;99.90;;;;;;5005790;28;20049;-72
2022/09/13 07:19:21;;;;;;;8.38;1.90;;;18.10;99.90;;;;;;4978517;28;20433;-72
2022/09/13 07:21:48;;;;;;;4.25;1.50;;;18.10;99.90;;;;;;5011807;28;20059;-72
2022/09/13 07:24:18;;;;;;;6.63;1.40;;;18.10;99.90;;;;;;5011655;28;20076;-72
2022/09/13 07:26:45;;;;;;;6.15;1.70;;;18.10;99.90;;;;;;4993349;28;20132;-72
2022/09/13 07:29:15;;;;;;;6.80;1.92;;;18.20;99.90;;;;;;5013091;28;20058;-72
2022/09/13 07:31:44;;;;;;;6.63;1.45;;;18.30;99.90;;;;;;5010699;28;20042;-72
2022/09/13 07:34:16;;;;;;;8.60;1.77;;;18.40;99.90;;;;;;4995341;28;20045;-72
2022/09/13 07:36:42;;;;;;;5.03;1.23;;;18.50;99.90;;;;;;5010657;28;20475;-72
2022/09/13 07:39:08;;;;;;;7.20;1.52;;;18.70;99.90;;;;;;5009099;28;20049;-72
2022/09/13 07:41:34;;;;;;;8.77;1.70;;;18.90;99.90;;;;;;5009963;28;20549;-72
2022/09/13 07:44:00;;;;;;;5.20;1.40;;;19.00;99.90;;;;;;4997180;28;20074;-73
2022/09/13 07:46:31;;;;;;;8.02;1.45;;;19.00;99.90;;;;;;5003054;28;20092;-73
2022/09/13 07:48:58;;;;;;;4.90;1.30;;;19.00;99.90;;;;;;5007236;28;20120;-73
2022/09/13 07:51:29;;;;;;;8.25;1.88;;;18.90;99.90;;;;;;4992543;28;20442;-73
2022/09/13 07:53:58;;;;;;;3.53;1.08;;;18.80;99.90;;;;;;5005502;28;20053;-72
2022/09/13 07:56:31;;;;;;;6.45;1.35;;;18.80;99.90;;;;;;5019204;28;20377;-73
2022/09/13 07:58:59;;;;;;;5.90;1.20;;;18.90;99.90;;;;;;5023396;28;20050;-73
2022/09/13 08:01:27;;;;;;;7.35;1.35;;;18.90;99.90;;;;;;4990787;28;20540;-73
2022/09/13 08:03:55;;;;;;;4.13;1.10;;;18.90;99.90;;;;;;4992077;28;20041;-73
2022/09/13 08:06:21;;;;;;;6.28;1.38;;;19.00;99.90;;;;;;5004780;28;20053;-73
2022/09/13 08:08:48;;;;;;;5.15;1.05;;;19.00;99.90;;;;;;4991305;28;21630;-73
2022/09/13 08:11:18;;;;;;;4.88;0.90;;;18.90;99.90;;;;;;5007093;28;20050;-73
2022/09/13 08:13:45;;;;;;;5.53;1.13;;;18.80;99.90;;;;;;5011034;28;20046;-73
2022/09/13 08:16:11;;;;;;;5.32;1.20;;;18.90;99.90;;;;;;5006854;28;20430;-73
2022/09/13 08:19:06;;;;;;;9.40;0.88;;;18.90;99.90;;;;;;5009003;28;20663;-72
2022/09/13 08:21:35;;;;;;;8.10;1.20;;;19.40;99.90;;;;;;5005840;28;20057;-72
2022/09/13 08:24:01;;;;;;;7.72;1.02;;;19.00;99.90;;;;;;4991085;28;20042;-72
2022/09/13 08:26:29;;;;;;;4.35;0.90;;;19.00;99.90;;;;;;5012107;28;20437;-72
2022/09/13 08:28:57;;;;;;;5.15;1.20;;;19.00;99.90;;;;;;5011933;28;20077;-72
2022/09/13 08:31:22;;;;;;;6.35;1.20;;;19.10;99.90;;;;;;5005960;28;20038;-72
2022/09/13 08:33:48;;;;;;;7.13;1.00;;;19.30;99.90;;;;;;4976308;28;20089;-72
2022/09/13 08:36:16;;;;;;;8.52;1.27;;;19.30;99.90;;;;;;4992172;28;20505;-72
2022/09/13 08:38:50;;;;;;;3.75;0.80;;;19.40;99.90;;;;;;5008399;28;20155;-71
2022/09/13 08:41:46;;;;;;;5.00;0.90;;;19.60;99.90;;;;;;4997479;28;20041;-72
2022/09/13 08:44:43;;;;;;;6.50;1.15;;;20.10;99.90;;;;;;5005601;28;20069;-72
2022/09/13 08:47:28;;;;;;;4.55;1.00;;;20.30;99.90;;;;;;5021452;28;20117;-72
2022/09/13 08:50:09;;;;;;;4.97;1.10;;;20.00;99.90;;;;;;5021651;28;20092;-71
2022/09/13 08:52:59;;;;;;;5.65;1.05;;;19.90;99.90;;;;;;5004975;28;20057;-72
2022/09/13 08:55:31;;;;;;;3.72;0.70;;;19.90;99.90;;;;;;5008908;28;20050;-72
2022/09/13 08:58:15;;;;;;;5.10;0.88;;;19.80;99.90;;;;;;4995483;28;20046;-72
2022/09/13 09:00:47;;;;;;;5.82;0.88;;;19.80;99.90;;;;;;5007129;28;20045;-71
2022/09/13 09:03:43;;;;;;;6.55;1.08;;;20.00;99.90;;;;;;5011494;28;20061;-72
2022/09/13 09:06:15;;;;;;;3.15;0.70;;;20.00;99.90;;;;;;5011710;28;20046;-72
2022/09/13 09:08:47;;;;;;;8.27;1.10;;;20.20;99.90;;;;;;4994920;28;20049;-72
2022/09/13 09:11:45;;;;;;;5.72;1.13;;;20.40;99.90;;;;;;5007275;28;20561;-72
2022/09/13 09:14:25;;;;;;;6.07;1.00;;;20.50;99.90;;;;;;4992033;28;20430;-72
2022/09/13 09:16:57;;;;;;;3.47;0.70;;;20.70;99.90;;;;;;4995363;28;20081;-72
2022/09/13 09:19:39;;;;;;;3.53;0.80;;;20.60;99.90;;;;;;5014681;28;20490;-71
2022/09/13 09:22:20;;;;;;;6.90;0.95;;;20.30;99.90;;;;;;4994148;28;20352;-72
2022/09/13 09:25:05;;;;;;;3.13;0.70;;;20.20;99.90;;;;;;4995819;28;20048;-72
2022/09/13 09:27:32;;;;;;;3.08;0.77;;;20.30;99.90;;;;;;5015124;28;20451;-72
2022/09/13 09:29:58;;;;;;;5.40;0.90;;;20.60;99.90;;;;;;4982816;28;20041;-72
2022/09/13 09:32:30;;;;;;;3.75;0.90;;;20.70;99.90;;;;;;5014117;28;20038;-71
2022/09/13 09:35:00;;;;;;;6.63;0.70;;;20.80;99.90;;;;;;4998741;28;20367;-71
2022/09/13 09:37:28;;;;;;;2.70;0.70;;;20.80;99.90;;;;;;4998511;28;20049;-72
2022/09/13 09:40:04;;;;;;;6.18;1.15;;;20.60;99.90;;;;;;5014992;28;20112;-72
2022/09/13 09:42:38;;;;;;;4.32;0.70;;;20.50;99.90;;;;;;4995993;28;20701;-72
2022/09/13 09:45:18;;;;;;;6.10;0.80;;;20.60;99.90;;;;;;5014914;28;20049;-72
2022/09/13 09:47:46;;;;;;;6.20;1.00;;;20.90;99.90;;;;;;5014885;28;20099;-72
2022/09/13 09:50:22;;;;;;;1.98;0.77;;;21.10;99.90;;;;;;4998360;28;20382;-72
2022/09/13 09:53:25;;;;;;;4.07;0.70;;;21.50;99.90;;;;;;4997854;28;20052;-72
2022/09/13 09:56:09;;;;;;;4.32;0.77;;;21.60;99.90;;;;;;5014779;28;20049;-72
2022/09/13 09:58:37;;;;;;;6.07;0.75;;;21.40;99.90;;;;;;5014685;28;20052;-73
2022/09/13 10:01:05;;;;;;;5.78;0.82;;;21.10;99.90;;;;;;5014621;28;20085;-73
2022/09/13 10:03:33;;;;;;;4.05;0.75;;;20.80;99.90;;;;;;5013317;28;20486;-72
2022/09/13 10:06:08;;;;;;;5.72;0.70;;;21.00;99.90;;;;;;5014539;28;20100;-72
2022/09/13 10:08:37;;;;;;;3.60;0.80;;;21.00;99.90;;;;;;5014044;28;20045;-72
2022/09/13 10:11:03;;;;;;;4.57;0.93;;;21.00;99.90;;;;;;4997698;28;20108;-71
2022/09/13 10:13:31;;;;;;;4.00;0.88;;;20.80;99.90;;;;;;5014368;28;20132;-72
2022/09/13 10:16:02;;;;;;;5.75;1.08;;;20.90;99.90;;;;;;4998077;28;20129;-71
2022/09/13 10:18:30;;;;;;;3.30;0.70;;;21.00;99.90;;;;;;5013609;28;20041;-72
2022/09/13 10:21:02;;;;;;;6.85;1.00;;;21.20;99.90;;;;;;4997952;28;20100;-72
2022/09/13 10:23:29;;;;;;;5.72;0.80;;;21.60;99.90;;;;;;5014246;28;20425;-71
2022/09/13 10:26:15;;;;;;;6.45;1.13;;;21.60;99.90;;;;;;5014089;28;20042;-72
2022/09/13 10:28:58;;;;;;;4.63;1.27;;;21.70;99.90;;;;;;4996706;28;20061;-72
2022/09/13 10:31:30;;;;;;;4.60;0.95;;;21.70;99.90;;;;;;4996496;28;20045;-73
2022/09/13 10:34:01;;;;;;;5.03;0.80;;;21.70;99.90;;;;;;5013897;28;20038;-72
2022/09/13 10:36:31;;;;;;;;;;;21.80;99.90;;;;;;5013802;28;20041;-72
2022/09/13 10:39:07;;;;;;;5.38;1.00;;;22.00;99.90;;;;;;5013760;28;19917;-72
2022/09/13 10:41:39;;;;;;;5.13;0.90;;;22.20;99.90;;;;;;5013740;28;20479;-72
2022/09/13 10:44:21;;;;;;;3.33;0.80;;;22.10;99.90;;;;;;4997614;28;20042;-72
2022/09/13 10:46:49;;;;;;;3.85;0.75;;;22.30;99.90;;;;;;5013892;28;20100;-72
2022/09/13 10:49:34;;;;;;;5.90;0.95;;;22.00;99.90;;;;;;4981434;28;20111;-72
2022/09/13 10:52:00;;;;;;;2.97;0.73;;;21.70;99.90;;;;;;5012784;28;20132;-72
2022/09/13 10:54:28;;;;;;;3.50;0.85;;;21.50;99.90;;;;;;5013379;28;20390;-72
2022/09/13 10:56:55;;;;;;;5.10;1.00;;;21.60;99.90;;;;;;5013628;28;20045;-72
2022/09/13 10:59:29;;;;;;;4.75;0.73;;;22.00;99.90;;;;;;5013496;28;20058;-72
2022/09/13 11:02:21;;;;;;;7.28;1.02;;;21.70;99.90;;;;;;4997174;28;20132;-72
2022/09/13 11:05:13;;;;;;;5.80;0.80;;;21.90;99.90;;;;;;5013147;28;20081;-71
2022/09/13 11:08:06;;;;;;;5.03;0.90;;;22.10;99.90;;;;;;5012444;28;20073;-72
2022/09/13 11:10:53;;;;;;;6.05;1.20;;;22.30;99.90;;;;;;4996719;28;20074;-72
2022/09/13 11:13:33;;;;;;;4.63;0.77;;;22.60;99.90;;;;;;4996903;28;20045;-72
2022/09/13 11:16:17;;;;;;;4.20;0.88;;;22.40;99.90;;;;;;5013211;28;20042;-72
2022/09/13 11:18:58;;;;;;;3.67;0.90;;;22.30;99.90;;;;;;4996888;28;20383;-72
2022/09/13 11:22:00;;;;;;;2.88;0.60;;;21.80;99.90;;;;;;5012374;28;20042;-72
2022/09/13 11:24:48;;;;;;;4.55;0.73;;;21.70;99.90;;;;;;5013137;28;20045;-72
2022/09/13 11:27:56;;;;;;;2.97;0.80;;;21.60;99.90;;;;;;5012749;28;20045;-72
2022/09/13 11:30:24;;;;;;;3.25;0.80;;;21.50;99.90;;;;;;5012258;28;20037;-72
2022/09/13 11:33:05;;;;;;;2.88;0.93;;;21.60;99.90;;;;;;4996543;28;20052;-72
2022/09/13 11:36:08;;;;;;;4.18;0.93;;;22.00;99.90;;;;;;5012083;28;20060;-72
2022/09/13 11:39:12;;;;;;;3.28;0.77;;;22.30;99.90;;;;;;5012721;28;20045;-72
2022/09/13 11:41:47;;;;;;;5.03;0.98;;;22.70;99.90;;;;;;5012220;28;20115;-72
2022/09/13 11:44:25;;;;;;;2.63;0.70;;;22.70;99.40;;;;;;4996564;28;20052;-72
2022/09/13 11:47:11;;;;;;;2.47;0.60;;;22.80;98.80;;;;;;5012808;28;20045;-72
2022/09/13 11:50:14;;;;;;;4.18;0.60;;;23.00;98.80;;;;;;4995569;28;20367;-73
2022/09/13 11:52:41;;;;;;;3.30;0.73;;;23.20;95.20;;;;;;5012365;28;20062;-72
2022/09/13 11:55:30;;;;;;;1.75;0.50;;;23.00;97.50;;;;;;4995911;28;20045;-72
2022/09/13 11:58:01;;;;;;;5.00;0.70;;;23.20;94.40;;;;;;5011867;28;20049;-73
2022/09/13 12:00:43;;;;;;;3.78;0.80;;;23.40;96.20;;;;;;4996205;28;20053;-72
2022/09/13 12:03:38;;;;;;;4.30;0.93;;;23.30;92.90;;;;;;4996099;28;20041;-72
2022/09/13 12:06:30;;;;;;;3.88;0.90;;;23.50;91.30;;;;;;4996101;28;20037;-72
2022/09/13 12:09:12;;;;;;;3.17;1.05;;;23.80;95.30;;;;;;5011632;28;20545;-72
2022/09/13 12:11:42;;;;;;;5.60;1.00;;;24.60;96.60;;;;;;5011960;28;20050;-72
2022/09/13 12:14:18;;;;;;;6.30;1.00;;;24.90;97.20;;;;;;5011492;28;20033;-72
2022/09/13 12:16:48;;;;;;;2.97;0.98;;;25.10;95.10;;;;;;4995717;28;20050;-72
2022/09/13 12:19:42;;;;;;;5.70;0.90;;;25.20;96.80;;;;;;4995605;28;20107;-72
2022/09/13 12:22:08;;;;;;;4.90;1.00;;;25.20;94.20;;;;;;4993659;28;20136;-72
2022/09/13 12:24:42;;;;;;;6.40;0.95;;;25.40;96.40;;;;;;5011839;28;20038;-72
2022/09/13 12:27:11;;;;;;;5.00;0.85;;;25.30;91.90;;;;;;4995148;28;20505;-72
2022/09/13 12:29:47;;;;;;;3.95;0.90;;;25.70;93.20;;;;;;5006344;28;20050;-72
2022/09/13 12:32:15;;;;;;;6.43;0.90;;;25.80;90.70;;;;;;5006234;28;20580;-73
2022/09/13 12:34:57;;;;;;;4.13;0.68;;;26.00;90.40;;;;;;5007811;28;20046;-72
2022/09/13 12:37:23;;;;;;;4.20;0.85;;;26.40;80.40;;;;;;4994133;28;20091;-72
2022/09/13 12:40:01;;;;;;;4.50;0.90;;;26.40;84.70;;;;;;5012105;28;20049;-72
2022/09/13 12:42:57;;;;;;;2.25;0.90;;;26.30;75.20;;;;;;4991768;28;20049;-72
2022/09/13 12:45:38;;;;;;;3.60;0.75;;;26.50;73.80;;;;;;5005641;28;20038;-73
2022/09/13 12:48:06;;;;;;;;;;;27.10;78.10;;;;;;5012467;28;20042;-72
2022/09/13 12:50:44;;;;;;;5.35;0.95;;;27.20;72.40;;;;;;5028362;28;19924;-72
2022/09/13 12:53:32;;;;;;;4.18;0.70;;;26.70;75.80;;;;;;5011232;28;20069;-72
2022/09/13 12:56:27;;;;;;;4.25;0.90;;;27.30;71.10;;;;;;5004017;28;20045;-72
2022/09/13 12:59:13;;;;;;;5.43;0.90;;;26.30;68.20;;;;;;4995545;28;20050;-73
2022/09/13 13:01:46;;;;;;;5.72;1.05;;;25.90;73.20;;;;;;4996022;28;20101;-72
2022/09/13 13:04:24;;;;;;;3.55;1.00;;;25.60;75.80;;;;;;5028853;28;20549;-73
2022/09/13 13:06:55;;;;;;;6.82;0.95;;;25.20;78.00;;;;;;5012728;28;20057;-72
2022/09/13 13:09:22;;;;;;;3.88;0.98;;;25.40;83.10;;;;;;5012891;28;20413;-73
2022/09/13 13:11:50;;;;;;;4.32;1.05;;;25.60;82.40;;;;;;5010745;28;20062;-72
2022/09/13 13:14:37;;;;;;;5.22;0.90;;;25.80;79.90;;;;;;4979103;28;20148;-73